This is the latest recevied weather packets stored in our database for station/object HS2LXA-WX. If no packets are shown the sender has not sent any weather packets the latest 10 day(s).
| Time | Temp. | Humidity | Pressure | Rain* | Wind** | Luminosity | Snow |
|---|---|---|---|---|---|---|---|
| 1777951455 | 32.22° C | 73% | 1013.1 hPa | 0 mm | - | - | - |
| 1777950540 | 32.78° C | 69% | 1013.2 hPa | 0 mm | - | - | - |
| 1777949940 | 32.22° C | 71% | 1013.1 hPa | 0 mm | - | - | - |
| 1777949336 | 32.22° C | 73% | 1013.2 hPa | 0 mm | - | - | - |
| 1777948736 | 31.67° C | 69% | 1013.2 hPa | 0 mm | - | - | - |
| 1777948136 | 31.67° C | 72% | 1013.2 hPa | 0 mm | - | - | - |
| 1777947536 | 31.11° C | 76% | 1013.1 hPa | 0 mm | - | - | - |
| 1777946935 | 30.56° C | 77% | 1013.1 hPa | 0 mm | - | - | - |
| 1777946335 | 30.56° C | 78% | 1013.2 hPa | 0 mm | - | - | - |
| 1777945735 | 30.56° C | 77% | 1013.1 hPa | 0 mm | - | - | - |
| 1777945134 | 30.56° C | 76% | 1013.2 hPa | 0 mm | - | - | - |
| 1777944534 | 30° C | 78% | 1013.2 hPa | 0 mm | - | - | - |
| 1777943931 | 30° C | 77% | 1013.1 hPa | 0 mm | - | - | - |
| 1777943331 | 29.44° C | 78% | 1013.1 hPa | 0 mm | - | - | - |
| 1777942338 | 28.33° C | 83% | 1013.2 hPa | 0 mm | - | - | - |
| 1777941218 | 29.44° C | 77% | 1013.1 hPa | 0 mm | - | - | - |
| 1777940618 | 28.89° C | 80% | 1013.2 hPa | 0 mm | - | - | - |
| 1777940018 | 29.44° C | 79% | 1013.2 hPa | 0 mm | - | - | - |
| 1777939418 | 28.89° C | 79% | 1013.2 hPa | 0 mm | - | - | - |
| 1777938818 | 29.44° C | 79% | 1013.1 hPa | 0 mm | - | - | - |
| 1777938218 | 29.44° C | 79% | 1013.2 hPa | 0 mm | - | - | - |
| 1777937618 | 29.44° C | 76% | 1013.1 hPa | 0 mm | - | - | - |
| 1777937017 | 29.44° C | 76% | 1013.2 hPa | 0 mm | - | - | - |
| 1777936417 | 29.44° C | 75% | 1013.1 hPa | 0 mm | - | - | - |
| 1777935817 | 29.44° C | 75% | 1013.2 hPa | 0 mm | - | - | - |
* Rain latest hour (hover to see other rain measurements)
** Current wind speed in m/s (hover to see current wind gust speed)